createdAt,value
2022-10-13T00:01:24.834Z,101922.28
2022-10-13T00:03:53.927Z,101918.78
2022-10-13T00:06:24.700Z,101913.53
2022-10-13T00:08:54.238Z,101920.53
2022-10-13T00:11:31.706Z,101920.50
2022-10-13T00:14:02.208Z,101910.03
2022-10-13T00:16:32.891Z,101904.81
2022-10-13T00:19:01.172Z,101902.19
2022-10-13T00:21:29.998Z,101896.09
2022-10-13T00:23:58.908Z,101889.09
2022-10-13T00:26:27.312Z,101893.47
2022-10-13T00:28:56.621Z,101897.03
2022-10-13T00:31:30.883Z,101894.41
2022-10-13T00:34:01.724Z,101890.91
2022-10-13T00:36:30.525Z,101892.69
2022-10-13T00:38:58.845Z,101892.69
2022-10-13T00:41:29.210Z,101878.69
2022-10-13T00:44:28.135Z,101876.97
2022-10-13T00:46:56.444Z,101886.66
2022-10-13T00:49:24.788Z,101886.69
2022-10-13T00:51:53.068Z,101893.72
2022-10-13T00:54:24.766Z,101889.38
2022-10-13T00:56:54.336Z,101885.03
2022-10-13T00:59:29.322Z,101885.94
2022-10-13T01:01:59.407Z,101882.44
2022-10-13T01:04:34.714Z,101889.47
2022-10-13T01:07:06.598Z,101872.88
2022-10-13T01:09:37.989Z,101879.00
2022-10-13T01:12:33.027Z,101881.63
2022-10-13T01:15:21.453Z,101870.25
2022-10-13T01:17:55.677Z,101870.25
2022-10-13T01:21:02.124Z,101855.38
2022-10-13T01:23:55.679Z,101858.00
2022-10-13T01:26:48.746Z,101853.63
2022-10-13T01:29:46.460Z,101855.38
2022-10-13T01:32:35.750Z,101856.31
2022-10-13T01:35:16.341Z,101849.25
2022-10-13T01:37:48.977Z,101841.34
2022-10-13T01:40:31.049Z,101843.09
2022-10-13T01:43:16.194Z,101839.59
2022-10-13T01:45:54.127Z,101832.59
2022-10-13T01:48:24.230Z,101827.31
2022-10-13T01:50:54.323Z,101825.53
2022-10-13T01:53:23.984Z,101828.22
2022-10-13T01:55:57.589Z,101819.44
2022-10-13T01:58:29.182Z,101821.19
2022-10-13T02:01:24.599Z,101818.56
2022-10-13T02:04:06.946Z,101820.28
2022-10-13T02:06:42.833Z,101811.53
2022-10-13T02:09:18.927Z,101806.28
2022-10-13T02:11:54.081Z,101803.66
2022-10-13T02:14:27.553Z,101798.41
2022-10-13T02:17:00.337Z,101794.84
2022-10-13T02:19:30.523Z,101792.25
2022-10-13T02:22:01.427Z,101782.56
2022-10-13T02:24:29.621Z,101788.72
2022-10-13T02:26:58.246Z,101785.25
2022-10-13T02:29:26.556Z,101792.25
2022-10-13T02:31:54.971Z,101794.91
2022-10-13T02:34:23.335Z,101795.81
2022-10-13T02:36:51.626Z,101793.22
2022-10-13T02:39:20.051Z,101796.72
2022-10-13T02:41:48.506Z,101792.34
2022-10-13T02:44:17.427Z,101788.88
2022-10-13T02:46:45.668Z,101787.13
2022-10-13T02:49:13.952Z,101784.56
2022-10-13T02:51:42.309Z,101786.25
2022-10-13T02:54:10.625Z,101786.31
2022-10-13T02:56:39.482Z,101791.56
2022-10-13T02:59:07.740Z,101776.66
2022-10-13T03:01:41.127Z,101765.22
2022-10-13T03:04:10.007Z,101755.56
2022-10-13T03:06:38.527Z,101769.59
2022-10-13T03:09:07.301Z,101773.09
2022-10-13T03:11:36.966Z,101762.59
2022-10-13T03:14:05.238Z,101773.94
2022-10-13T03:16:33.667Z,101771.31
2022-10-13T03:19:01.960Z,101780.06
2022-10-13T03:21:30.276Z,101775.59
2022-10-13T03:23:58.714Z,101782.63
2022-10-13T03:26:28.614Z,101781.75
2022-10-13T03:28:58.361Z,101779.94
2022-10-13T03:31:27.007Z,101772.00
2022-10-13T03:34:03.393Z,101770.28
2022-10-13T03:36:32.164Z,101769.38
2022-10-13T03:39:00.594Z,101768.50
2022-10-13T03:41:28.934Z,101767.63
2022-10-13T03:43:57.233Z,101761.50
2022-10-13T03:46:29.140Z,101761.50
2022-10-13T03:48:59.168Z,101761.50
2022-10-13T03:51:28.089Z,101765.03
2022-10-13T03:53:56.457Z,101768.53
2022-10-13T03:56:27.020Z,101769.38
2022-10-13T03:58:59.809Z,101764.13
2022-10-13T04:01:32.625Z,101768.50
2022-10-13T04:04:04.388Z,101761.50
2022-10-13T04:06:34.845Z,101764.09
2022-10-13T04:09:03.780Z,101764.13
2022-10-13T04:11:32.581Z,101765.03
2022-10-13T04:14:01.037Z,101758.91
2022-10-13T04:16:31.848Z,101760.69
2022-10-13T04:19:04.022Z,101755.44
2022-10-13T04:21:34.707Z,101758.06
2022-10-13T04:24:04.083Z,101743.22
2022-10-13T04:26:35.557Z,101740.59
2022-10-13T04:29:09.446Z,101739.72
2022-10-13T04:31:39.229Z,101736.19
2022-10-13T04:34:07.849Z,101739.75
2022-10-13T04:36:36.936Z,101723.94
2022-10-13T04:39:05.359Z,101723.06
2022-10-13T04:41:35.118Z,101719.59
2022-10-13T04:44:03.490Z,101714.31
2022-10-13T04:46:32.063Z,101718.75
2022-10-13T04:49:01.631Z,101709.97
2022-10-13T04:51:34.043Z,101715.25
2022-10-13T04:54:02.828Z,101714.38
2022-10-13T04:56:33.067Z,101709.97
2022-10-13T04:59:05.976Z,101702.09
2022-10-13T05:01:36.023Z,101714.38
2022-10-13T05:04:10.117Z,101705.59
2022-10-13T05:07:05.243Z,101700.34
2022-10-13T05:09:29.566Z,101706.47
2022-10-13T05:11:57.995Z,101704.72
2022-10-13T05:14:26.950Z,101699.50
2022-10-13T05:16:55.167Z,101695.16
2022-10-13T05:19:23.735Z,101688.09
2022-10-13T05:21:53.768Z,101696.03
2022-10-13T05:24:31.020Z,101694.25
2022-10-13T05:26:59.599Z,101694.25
2022-10-13T05:29:28.027Z,101704.81
2022-10-13T05:31:56.480Z,101708.31
2022-10-13T05:34:24.870Z,101706.59
2022-10-13T05:36:53.425Z,101697.78
2022-10-13T05:39:22.288Z,101704.84
2022-10-13T05:41:50.859Z,101711.84
2022-10-13T05:44:22.405Z,101702.22
2022-10-13T05:46:57.142Z,101702.22
2022-10-13T05:49:25.689Z,101704.84
2022-10-13T05:52:00.445Z,101696.91
2022-10-13T05:55:05.629Z,101691.66
2022-10-13T05:57:38.306Z,101693.41
2022-10-13T06:00:28.274Z,101690.78
2022-10-13T06:03:05.789Z,101689.00
2022-10-13T06:05:37.610Z,101690.75
2022-10-13T06:08:06.083Z,101688.09
2022-10-13T06:10:37.392Z,101682.00
2022-10-13T06:13:05.754Z,101675.84
2022-10-13T06:15:34.165Z,101664.47
2022-10-13T06:18:02.587Z,101664.50
2022-10-13T06:20:31.003Z,101664.50
2022-10-13T06:22:59.735Z,101658.38
2022-10-13T06:25:30.421Z,101653.13
2022-10-13T06:28:00.369Z,101654.91
2022-10-13T06:30:29.126Z,101658.41
2022-10-13T06:32:57.763Z,101660.25
2022-10-13T06:35:26.031Z,101669.94
2022-10-13T06:37:57.411Z,101662.97
2022-10-13T06:40:26.501Z,101662.97
2022-10-13T06:42:54.678Z,101664.72
2022-10-13T06:45:24.535Z,101664.72
2022-10-13T06:47:54.561Z,101668.25
2022-10-13T06:50:23.513Z,101660.41
2022-10-13T06:52:56.839Z,101664.88
2022-10-13T06:55:26.684Z,101658.75
2022-10-13T06:57:54.948Z,101668.47
2022-10-13T07:00:24.739Z,101654.50
2022-10-13T07:02:53.140Z,101659.00
2022-10-13T07:05:21.390Z,101660.81
2022-10-13T07:07:54.032Z,101654.75
2022-10-13T07:10:22.403Z,101655.75
2022-10-13T07:12:50.911Z,101654.09
2022-10-13T07:15:19.235Z,101647.19
2022-10-13T07:17:53.979Z,101654.28
2022-10-13T07:20:24.099Z,101659.66
2022-10-13T07:22:54.774Z,101652.66
2022-10-13T07:25:25.056Z,101651.84
2022-10-13T07:27:53.468Z,101651.06
2022-10-13T07:30:21.926Z,101644.13
2022-10-13T07:32:50.372Z,101641.59
2022-10-13T07:35:19.977Z,101646.91
2022-10-13T07:37:48.677Z,101641.75
2022-10-13T07:40:20.270Z,101648.91
2022-10-13T07:42:48.727Z,101639.34
2022-10-13T07:45:17.146Z,101636.78
2022-10-13T07:47:45.460Z,101641.28
2022-10-13T07:50:13.763Z,101639.59
2022-10-13T07:52:42.078Z,101642.38
2022-10-13T07:55:13.405Z,101644.22
2022-10-13T07:57:41.724Z,101642.47
2022-10-13T08:00:11.590Z,101648.69
2022-10-13T08:02:42.836Z,101653.97
2022-10-13T08:05:11.231Z,101655.78
2022-10-13T08:07:39.589Z,101651.38
2022-10-13T08:10:08.776Z,101654.00
2022-10-13T08:12:37.735Z,101654.00
2022-10-13T08:15:08.602Z,101650.50
2022-10-13T08:17:37.081Z,101643.44
2022-10-13T08:20:06.706Z,101639.97
2022-10-13T08:22:35.020Z,101639.06
2022-10-13T08:25:03.523Z,101644.31
2022-10-13T08:27:49.587Z,101642.53
2022-10-13T08:30:19.814Z,101633.78
2022-10-13T08:32:49.490Z,101632.91
2022-10-13T08:35:19.324Z,101639.06
2022-10-13T08:37:47.641Z,101628.56
2022-10-13T08:40:20.831Z,101630.38
2022-10-13T08:42:50.548Z,101626.91
2022-10-13T08:45:40.991Z,101633.16
2022-10-13T08:48:32.979Z,101632.31
2022-10-13T08:51:06.157Z,101628.81
2022-10-13T08:53:41.491Z,101627.94
2022-10-13T08:56:14.011Z,101623.56
2022-10-13T08:58:44.211Z,101621.00
2022-10-13T09:01:20.102Z,101621.91
2022-10-13T09:04:11.449Z,101623.75
2022-10-13T09:06:48.352Z,101623.81
2022-10-13T09:09:17.435Z,101620.34
2022-10-13T09:11:49.438Z,101626.53
2022-10-13T09:14:38.180Z,101622.19
2022-10-13T09:17:20.397Z,101631.91
2022-10-13T09:20:08.057Z,101621.38
2022-10-13T09:22:38.710Z,101624.00
2022-10-13T09:25:07.050Z,101620.53
2022-10-13T09:28:08.811Z,101624.09
2022-10-13T09:30:47.158Z,101623.25
2022-10-13T09:33:20.883Z,101629.47
2022-10-13T09:36:06.805Z,101625.13
2022-10-13T09:38:35.120Z,101625.16
2022-10-13T09:41:20.214Z,101626.09
2022-10-13T09:43:48.637Z,101619.13
2022-10-13T09:46:46.550Z,101626.22
2022-10-13T09:49:32.623Z,101627.13
2022-10-13T09:52:17.043Z,101628.06
2022-10-13T09:54:50.158Z,101629.84
2022-10-13T09:57:31.484Z,101634.28
2022-10-13T10:00:26.184Z,101630.81
2022-10-13T10:03:16.678Z,101636.09
2022-10-13T10:05:55.862Z,101634.34
2022-10-13T10:08:33.906Z,101626.41
2022-10-13T10:11:27.569Z,101620.25
2022-10-13T10:13:57.659Z,101615.84
2022-10-13T10:16:41.378Z,101620.31
2022-10-13T10:19:37.508Z,101617.66
2022-10-13T10:22:14.129Z,101617.72
2022-10-13T10:25:18.275Z,101615.13
2022-10-13T10:28:08.003Z,101608.09
2022-10-13T10:30:44.214Z,101607.25
2022-10-13T10:33:20.230Z,101605.50
2022-10-13T10:36:16.811Z,101604.69
2022-10-13T10:38:49.114Z,101602.13
2022-10-13T10:41:37.401Z,101616.22
2022-10-13T10:44:24.965Z,101602.19
2022-10-13T10:46:59.452Z,101603.97
2022-10-13T10:49:36.348Z,101612.78
2022-10-13T10:52:17.006Z,101612.78
2022-10-13T10:55:15.198Z,101613.66
2022-10-13T10:58:12.697Z,101608.38
2022-10-13T11:01:31.195Z,101599.53
2022-10-13T11:04:33.622Z,101598.69
2022-10-13T11:07:03.589Z,101599.53
2022-10-13T11:09:41.315Z,101596.88
2022-10-13T11:12:19.089Z,101588.13
2022-10-13T11:15:02.226Z,101594.28
2022-10-13T11:17:34.747Z,101594.31
2022-10-13T11:20:25.469Z,101587.28
2022-10-13T11:22:59.799Z,101585.53
2022-10-13T11:25:41.668Z,101582.91
2022-10-13T11:28:22.388Z,101586.44
2022-10-13T11:30:51.823Z,101571.50
2022-10-13T11:33:38.523Z,101569.69
2022-10-13T11:36:37.597Z,101567.94
2022-10-13T11:39:33.432Z,101570.59
2022-10-13T11:42:32.968Z,101575.91
2022-10-13T11:45:21.640Z,101568.84
2022-10-13T11:47:58.959Z,101575.03
2022-10-13T11:51:01.084Z,101560.06
2022-10-13T11:53:41.837Z,101558.31
2022-10-13T11:56:22.402Z,101562.72
2022-10-13T11:58:50.826Z,101567.16
2022-10-13T12:01:19.752Z,101566.28
2022-10-13T12:03:48.459Z,101556.59
2022-10-13T12:06:32.559Z,101561.00
2022-10-13T12:09:14.633Z,101563.69
2022-10-13T12:11:44.290Z,101555.75
2022-10-13T12:14:24.205Z,101561.97
2022-10-13T12:16:57.854Z,101559.28
2022-10-13T12:19:29.287Z,101557.53
2022-10-13T12:22:03.844Z,101560.22
2022-10-13T12:24:32.158Z,101557.59
2022-10-13T12:27:21.474Z,101554.06
2022-10-13T12:29:51.840Z,101554.06
2022-10-13T12:32:31.967Z,101556.72
2022-10-13T12:35:26.719Z,101546.13
2022-10-13T12:37:57.094Z,101542.63
2022-10-13T12:40:25.576Z,101554.09
2022-10-13T12:42:54.104Z,101552.34
2022-10-13T12:45:26.102Z,101554.09
2022-10-13T12:47:55.089Z,101555.88
2022-10-13T12:50:29.554Z,101550.63
2022-10-13T12:53:20.630Z,101539.16
2022-10-13T12:56:00.731Z,101538.28
2022-10-13T12:58:31.315Z,101536.53
2022-10-13T13:01:07.879Z,101536.53
2022-10-13T13:03:38.794Z,101537.44
2022-10-13T13:06:08.854Z,101540.13
2022-10-13T13:08:37.304Z,101538.34
2022-10-13T13:11:07.831Z,101547.19
2022-10-13T13:13:36.199Z,101547.19
2022-10-13T13:16:23.102Z,101540.13
2022-10-13T13:18:52.005Z,101540.13
2022-10-13T13:21:20.813Z,101541.00
2022-10-13T13:23:52.905Z,101536.59
2022-10-13T13:26:23.745Z,101540.13
2022-10-13T13:28:54.813Z,101540.16
2022-10-13T13:31:25.348Z,101538.38
2022-10-13T13:33:53.774Z,101536.63
2022-10-13T13:36:25.010Z,101530.47
2022-10-13T13:38:54.324Z,101528.69
2022-10-13T13:41:25.063Z,101533.97
2022-10-13T13:43:53.337Z,101527.81
2022-10-13T13:46:24.759Z,101536.63
2022-10-13T13:48:53.504Z,101532.22
2022-10-13T13:51:22.004Z,101534.84
2022-10-13T13:53:50.510Z,101534.00
2022-10-13T13:56:20.949Z,101531.34
2022-10-13T13:58:49.349Z,101529.56
2022-10-13T14:01:17.754Z,101525.16
2022-10-13T14:03:46.062Z,101519.84
2022-10-13T14:06:18.591Z,101523.38
2022-10-13T14:08:47.105Z,101514.53
2022-10-13T14:11:15.427Z,101511.91
2022-10-13T14:13:43.728Z,101516.31
2022-10-13T14:16:18.382Z,101517.19
2022-10-13T14:18:47.677Z,101511.91
2022-10-13T14:21:16.005Z,101518.09
2022-10-13T14:23:47.131Z,101518.94
2022-10-13T14:26:16.061Z,101511.91
2022-10-13T14:28:45.145Z,101518.97
2022-10-13T14:31:13.694Z,101514.53
2022-10-13T14:33:43.811Z,101503.06
2022-10-13T14:36:12.221Z,101500.41
2022-10-13T14:38:40.594Z,101507.47
2022-10-13T14:41:09.720Z,101505.72
2022-10-13T14:43:38.841Z,101501.31
2022-10-13T14:46:07.762Z,101502.16
2022-10-13T14:48:37.577Z,101505.72
2022-10-13T14:51:07.238Z,101506.59
2022-10-13T14:53:40.920Z,101500.38
2022-10-13T14:56:21.574Z,101506.53
2022-10-13T14:59:02.710Z,101510.06
2022-10-13T15:01:38.632Z,101510.06
2022-10-13T15:04:07.932Z,101516.22
2022-10-13T15:06:39.346Z,101514.47
2022-10-13T15:11:42.285Z,101506.53
2022-10-13T15:14:10.738Z,101510.03
2022-10-13T15:16:39.165Z,101518.91
2022-10-13T15:19:08.354Z,101509.16
2022-10-13T15:21:36.788Z,101513.59
2022-10-13T15:24:06.277Z,101515.34
2022-10-13T15:26:34.970Z,101517.09
2022-10-13T15:29:03.918Z,101514.47
2022-10-13T15:31:32.349Z,101510.94
2022-10-13T15:34:01.705Z,101526.84
2022-10-13T15:36:30.029Z,101512.69
2022-10-13T15:38:58.638Z,101510.94
2022-10-13T15:41:26.995Z,101518.00
2022-10-13T15:43:55.361Z,101511.81
2022-10-13T15:46:24.429Z,101510.94
2022-10-13T15:48:55.146Z,101513.59
2022-10-13T15:51:24.355Z,101505.63
2022-10-13T15:53:55.704Z,101509.16
2022-10-13T15:56:24.040Z,101506.50
2022-10-13T15:58:52.793Z,101507.41
2022-10-13T16:01:21.170Z,101510.03
2022-10-13T16:03:53.762Z,101508.28
2022-10-13T16:06:22.582Z,101507.38
2022-10-13T16:08:50.971Z,101495.91
2022-10-13T16:11:21.718Z,101497.69
2022-10-13T16:13:51.672Z,101504.75
2022-10-13T16:16:22.334Z,101501.19
2022-10-13T16:18:51.362Z,101499.44
2022-10-13T16:21:28.913Z,101491.50
2022-10-13T16:24:00.419Z,101496.78
2022-10-13T16:26:28.795Z,101497.69
2022-10-13T16:29:00.417Z,101495.91
2022-10-13T16:31:29.317Z,101498.56
2022-10-13T16:33:57.597Z,101506.47
2022-10-13T16:36:26.078Z,101497.66
2022-10-13T16:38:56.538Z,101502.03
2022-10-13T16:41:25.067Z,101503.75
2022-10-13T16:43:55.148Z,101500.19
2022-10-13T16:46:23.902Z,101500.22
2022-10-13T16:48:52.176Z,101501.06
2022-10-13T16:51:23.253Z,101505.47
2022-10-13T16:53:59.962Z,101500.19
2022-10-13T16:56:33.050Z,101497.53
2022-10-13T16:59:04.619Z,101505.44
2022-10-13T17:01:34.845Z,101491.34
2022-10-13T17:04:04.453Z,101498.38
2022-10-13T17:06:33.160Z,101500.13
2022-10-13T17:09:03.905Z,101501.00
2022-10-13T17:11:34.386Z,101493.06
2022-10-13T17:14:05.682Z,101492.16
2022-10-13T17:16:34.216Z,101495.69
2022-10-13T17:19:03.517Z,101500.09
2022-10-13T17:21:34.484Z,101504.50
2022-10-13T17:24:02.903Z,101501.84
2022-10-13T17:26:31.545Z,101514.19
2022-10-13T17:28:59.900Z,101510.66
2022-10-13T17:31:28.359Z,101511.53
2022-10-13T17:33:56.846Z,101515.03
2022-10-13T17:36:31.842Z,101511.50
2022-10-13T17:39:07.903Z,101520.31
2022-10-13T17:41:40.460Z,101518.56
2022-10-13T17:44:10.009Z,101521.19
2022-10-13T17:46:39.486Z,101516.75
2022-10-13T17:49:10.964Z,101518.50
2022-10-13T17:51:40.837Z,101520.28
2022-10-13T17:54:15.568Z,101526.44
2022-10-13T17:56:46.692Z,101526.44
2022-10-13T17:59:16.460Z,101521.13
2022-10-13T18:01:45.954Z,101528.19
2022-10-13T18:04:17.157Z,101532.59
2022-10-13T18:06:45.884Z,101518.50
2022-10-13T18:09:23.250Z,101527.28
2022-10-13T18:11:53.961Z,101528.19
2022-10-13T18:14:23.647Z,101525.53
2022-10-13T18:16:52.629Z,101536.09
2022-10-13T18:19:21.930Z,101536.09
2022-10-13T18:21:55.704Z,101536.06
2022-10-13T18:24:25.126Z,101536.94
2022-10-13T18:26:56.138Z,101536.06
2022-10-13T18:29:25.693Z,101542.25
2022-10-13T18:31:56.578Z,101537.84
2022-10-13T18:34:24.871Z,101547.50
2022-10-13T18:36:56.663Z,101541.34
2022-10-13T18:39:30.127Z,101546.63
2022-10-13T18:42:01.978Z,101540.44
2022-10-13T18:44:35.386Z,101540.44
2022-10-13T18:47:03.920Z,101547.50
2022-10-13T18:49:33.274Z,101545.72
2022-10-13T18:52:04.464Z,101543.97
2022-10-13T18:54:34.749Z,101553.63
2022-10-13T18:57:03.175Z,101545.72
2022-10-13T18:59:31.566Z,101546.59
2022-10-13T19:02:01.404Z,101555.41
2022-10-13T19:04:29.696Z,101561.56
2022-10-13T19:06:58.016Z,101559.84
2022-10-13T19:09:30.402Z,101565.13
2022-10-13T19:11:58.977Z,101560.72
2022-10-13T19:14:28.006Z,101554.53
2022-10-13T19:17:01.606Z,101558.03
2022-10-13T19:19:31.276Z,101564.22
2022-10-13T19:22:02.402Z,101567.72
2022-10-13T19:24:30.734Z,101565.09
2022-10-13T19:26:59.025Z,101563.31
2022-10-13T19:29:30.573Z,101561.53
2022-10-13T19:31:58.975Z,101563.31
2022-10-13T19:34:27.488Z,101558.88
2022-10-13T19:37:00.436Z,101554.50
2022-10-13T19:39:29.348Z,101550.06
2022-10-13T19:41:57.980Z,101551.84
2022-10-13T19:44:26.613Z,101549.19
2022-10-13T19:46:55.494Z,101551.84
2022-10-13T19:49:26.507Z,101554.47
2022-10-13T19:51:57.320Z,101550.94
2022-10-13T19:54:31.473Z,101558.88
2022-10-13T19:57:01.475Z,101558.88
2022-10-13T19:59:29.743Z,101557.13
2022-10-13T20:01:58.057Z,101550.97
2022-10-13T20:04:26.716Z,101552.72
2022-10-13T20:06:55.127Z,101559.75
2022-10-13T20:09:23.462Z,101557.13
2022-10-13T20:11:57.175Z,101556.22
2022-10-13T20:14:25.709Z,101550.94
2022-10-13T20:16:58.485Z,101553.59
2022-10-13T20:19:27.047Z,101553.59
2022-10-13T20:21:56.378Z,101552.72
2022-10-13T20:24:27.914Z,101565.03
2022-10-13T20:26:57.832Z,101550.97
2022-10-13T20:29:27.360Z,101557.97
2022-10-13T20:31:55.727Z,101548.28
2022-10-13T20:34:25.101Z,101544.75
2022-10-13T20:36:53.640Z,101552.69
2022-10-13T20:39:24.717Z,101548.25
2022-10-13T20:41:53.674Z,101545.63
2022-10-13T20:44:22.024Z,101551.78
2022-10-13T20:46:51.939Z,101553.53
2022-10-13T20:49:23.542Z,101551.78
2022-10-13T20:51:51.873Z,101556.16
2022-10-13T20:54:20.273Z,101553.50
2022-10-13T20:56:49.629Z,101550.88
2022-10-13T20:59:17.920Z,101548.25
2022-10-13T21:01:46.312Z,101549.13
2022-10-13T21:04:14.617Z,101542.03
2022-10-13T21:06:43.510Z,101557.03
2022-10-13T21:09:12.216Z,101557.03
2022-10-13T21:11:43.367Z,101557.03
2022-10-13T21:14:11.770Z,101555.25
2022-10-13T21:16:43.342Z,101563.19
2022-10-13T21:19:12.833Z,101565.84
2022-10-13T21:21:41.117Z,101559.69
2022-10-13T21:24:10.331Z,101558.78
2022-10-13T21:26:43.125Z,101555.28
2022-10-13T21:29:15.210Z,101557.91
2022-10-13T21:31:43.544Z,101552.63
2022-10-13T21:34:12.520Z,101553.47
2022-10-13T21:36:44.351Z,101552.59
2022-10-13T21:39:14.687Z,101546.41
2022-10-13T21:41:43.442Z,101556.09
2022-10-13T21:44:14.973Z,101539.38
2022-10-13T21:46:43.464Z,101546.44
2022-10-13T21:49:12.066Z,101544.66
2022-10-13T21:51:40.624Z,101544.66
2022-10-13T21:54:12.631Z,101549.91
2022-10-13T21:56:41.924Z,101549.91
2022-10-13T21:59:12.414Z,101546.41
2022-10-13T22:01:41.272Z,101544.66
2022-10-13T22:04:15.793Z,101542.84
2022-10-13T22:06:44.474Z,101541.97
2022-10-13T22:09:13.360Z,101534.03
2022-10-13T22:11:42.321Z,101530.50
2022-10-13T22:14:13.637Z,101528.72
2022-10-13T22:16:45.713Z,101522.56
2022-10-13T22:19:14.923Z,101526.97
2022-10-13T22:21:46.612Z,101530.47
2022-10-13T22:24:17.497Z,101528.72
2022-10-13T22:26:48.714Z,101527.81
2022-10-13T22:29:20.370Z,101531.34
2022-10-13T22:31:50.555Z,101537.50
2022-10-13T22:34:18.886Z,101526.94
2022-10-13T22:36:47.524Z,101536.63
2022-10-13T22:39:16.246Z,101526.94
2022-10-13T22:41:44.609Z,101523.41
2022-10-13T22:44:13.628Z,101536.63
2022-10-13T22:46:44.743Z,101527.78
2022-10-13T22:49:14.969Z,101526.06
2022-10-13T22:51:43.720Z,101524.28
2022-10-13T22:54:12.524Z,101522.50
2022-10-13T22:56:42.091Z,101521.59
2022-10-13T22:59:12.098Z,101524.22
2022-10-13T23:01:40.698Z,101518.94
2022-10-13T23:04:09.236Z,101520.72
2022-10-13T23:06:37.716Z,101515.44
2022-10-13T23:09:12.148Z,101524.22
2022-10-13T23:11:40.797Z,101518.06
2022-10-13T23:14:12.552Z,101518.03
2022-10-13T23:16:40.906Z,101514.53
2022-10-13T23:19:09.225Z,101524.22
2022-10-13T23:21:38.185Z,101511.00
2022-10-13T23:24:07.374Z,101519.78
2022-10-13T23:26:35.794Z,101526.81
2022-10-13T23:29:05.166Z,101518.88
2022-10-13T23:31:33.949Z,101507.44
2022-10-13T23:34:02.338Z,101512.72
2022-10-13T23:36:32.242Z,101508.31
2022-10-13T23:39:06.465Z,101503.03
2022-10-13T23:41:35.350Z,101501.25
2022-10-13T23:44:03.969Z,101514.44
2022-10-13T23:46:32.229Z,101504.75
2022-10-13T23:49:00.591Z,101504.69
2022-10-13T23:51:29.044Z,101495.91
2022-10-13T23:53:58.666Z,101489.75
2022-10-13T23:56:27.074Z,101498.50
2022-10-13T23:58:55.457Z,101496.75
